Time;durP1;ratioP1;P1;durP2;ratioP2;P2;SDS_P1;SDS_P2;PMS_P1;PMS_P2;Temp;Humidity;BMP_temperature;BMP_pressure;BME280_temperature;BME280_humidity;BME280_pressure;Samples;Min_cycle;Max_cycle;Signal;HPM_P1;HPM_P2
2023/06/01 00:01:45;;;;;;;7.88;4.28;;;11.50;99.90;;;;;;5047962;28;20230;-64
2023/06/01 00:04:13;;;;;;;11.20;4.53;;;11.50;99.90;;;;;;5059910;28;20219;-64
2023/06/01 00:06:41;;;;;;;8.40;4.25;;;11.60;99.90;;;;;;5030383;28;20201;-64
2023/06/01 00:09:08;;;;;;;8.48;4.07;;;11.60;99.90;;;;;;5043333;28;20228;-64
2023/06/01 00:11:35;;;;;;;9.38;3.42;;;11.60;99.90;;;;;;5038585;28;20309;-64
2023/06/01 00:14:01;;;;;;;15.60;4.38;;;11.60;99.90;;;;;;5058034;28;20227;-65
2023/06/01 00:16:28;;;;;;;10.10;4.55;;;11.60;99.90;;;;;;5050887;28;20219;-64
2023/06/01 00:18:56;;;;;;;10.40;4.00;;;11.60;99.90;;;;;;5059261;28;20200;-64
2023/06/01 00:21:23;;;;;;;11.60;4.25;;;11.60;99.90;;;;;;5051384;28;20200;-64
2023/06/01 00:23:52;;;;;;;12.25;4.70;;;11.60;99.90;;;;;;5015834;28;21589;-64
2023/06/01 00:26:18;;;;;;;12.65;4.20;;;11.60;99.90;;;;;;5028229;28;20210;-64
2023/06/01 00:28:45;;;;;;;11.57;4.20;;;11.50;99.90;;;;;;5056043;28;20219;-65
2023/06/01 00:31:12;;;;;;;10.63;4.78;;;11.60;99.90;;;;;;5061351;28;20227;-64
2023/06/01 00:33:39;;;;;;;13.35;5.00;;;11.60;99.90;;;;;;5047527;28;20215;-64
2023/06/01 00:36:06;;;;;;;9.23;4.57;;;11.60;99.90;;;;;;5044673;28;20226;-65
2023/06/01 00:38:33;;;;;;;11.65;4.00;;;11.60;99.90;;;;;;5031564;28;20212;-64
2023/06/01 00:41:01;;;;;;;8.45;3.47;;;11.60;99.90;;;;;;5038903;28;20211;-64
2023/06/01 00:43:28;;;;;;;6.88;4.03;;;11.60;99.90;;;;;;5052463;28;20204;-64
2023/06/01 00:45:55;;;;;;;8.40;3.85;;;11.60;99.90;;;;;;5049328;28;20213;-64
2023/06/01 00:48:23;;;;;;;7.28;3.85;;;11.60;99.90;;;;;;5050531;28;20211;-64
2023/06/01 00:50:50;;;;;;;14.23;4.47;;;11.50;99.90;;;;;;5062122;28;20219;-64
2023/06/01 00:53:18;;;;;;;10.80;4.35;;;11.50;99.90;;;;;;5018107;28;20210;-64
2023/06/01 00:55:45;;;;;;;11.30;4.22;;;11.50;99.90;;;;;;5065565;28;20200;-64
2023/06/01 00:58:14;;;;;;;7.97;4.55;;;11.60;99.90;;;;;;5046763;28;20894;-64
2023/06/01 01:00:42;;;;;;;9.50;3.75;;;11.60;99.90;;;;;;5060743;28;20199;-64
2023/06/01 01:03:09;;;;;;;12.73;4.95;;;11.60;99.90;;;;;;5047806;28;20580;-64
2023/06/01 01:05:37;;;;;;;7.88;4.50;;;11.60;99.90;;;;;;5066541;28;20196;-64
2023/06/01 01:08:13;;;;;;;16.83;4.93;;;11.60;99.90;;;;;;5017905;28;20215;-65
2023/06/01 01:10:43;;;;;;;11.43;5.25;;;11.50;99.90;;;;;;5064293;28;20227;-64
2023/06/01 01:13:18;;;;;;;11.30;4.57;;;11.50;99.90;;;;;;5050983;28;20955;-64
2023/06/01 01:15:52;;;;;;;10.50;4.70;;;11.60;99.90;;;;;;5062949;28;20192;-64
2023/06/01 01:18:27;;;;;;;11.05;3.28;;;11.60;99.90;;;;;;5055600;28;20195;-65
2023/06/01 01:21:01;;;;;;;8.70;4.10;;;11.50;99.90;;;;;;5066769;28;20196;-64
2023/06/01 01:23:45;;;;;;;6.05;3.25;;;11.40;99.90;;;;;;5020112;28;20218;-65
2023/06/01 01:26:38;;;;;;;6.10;3.10;;;11.40;99.90;;;;;;5059986;28;20225;-64
2023/06/01 01:29:09;;;;;;;8.02;3.08;;;11.40;99.90;;;;;;5044489;28;20227;-64
2023/06/01 01:31:38;;;;;;;7.88;2.92;;;11.40;99.90;;;;;;5060200;28;20296;-64
2023/06/01 01:34:05;;;;;;;8.98;3.30;;;11.40;99.90;;;;;;5053172;28;20205;-64
2023/06/01 01:36:33;;;;;;;6.93;3.05;;;11.50;99.90;;;;;;5059391;28;20207;-64
2023/06/01 01:38:59;;;;;;;8.52;3.28;;;11.50;99.90;;;;;;5052747;28;20684;-64
2023/06/01 01:41:26;;;;;;;8.25;3.30;;;11.50;99.90;;;;;;5031063;28;20349;-65
2023/06/01 01:43:54;;;;;;;10.45;3.15;;;11.50;99.90;;;;;;5052552;28;20746;-64
2023/06/01 01:46:27;;;;;;;6.53;3.50;;;11.50;99.90;;;;;;5059414;28;20223;-64
2023/06/01 01:49:01;;;;;;;10.60;3.53;;;11.50;99.90;;;;;;5062932;28;20208;-64
2023/06/01 01:51:37;;;;;;;10.02;3.17;;;11.50;99.90;;;;;;5051693;28;20227;-64
2023/06/01 01:54:05;;;;;;;9.50;3.08;;;11.40;99.90;;;;;;5047882;28;20215;-64
2023/06/01 01:56:32;;;;;;;4.47;3.15;;;11.50;99.90;;;;;;5029220;28;20306;-64
2023/06/01 01:59:00;;;;;;;9.65;3.58;;;11.50;99.90;;;;;;5054054;28;20689;-64
2023/06/01 02:01:28;;;;;;;6.10;2.45;;;11.40;99.90;;;;;;5059141;28;20197;-64
2023/06/01 02:04:02;;;;;;;9.18;3.30;;;11.50;99.90;;;;;;5061899;28;20223;-64
2023/06/01 02:06:28;;;;;;;9.27;3.35;;;11.40;99.90;;;;;;5046472;28;20217;-64
2023/06/01 02:08:55;;;;;;;10.07;3.92;;;11.40;99.90;;;;;;5063694;28;20196;-64
2023/06/01 02:11:22;;;;;;;9.93;4.32;;;11.50;99.90;;;;;;5029587;28;20228;-65
2023/06/01 02:13:49;;;;;;;9.50;4.18;;;11.50;99.90;;;;;;5053136;28;20204;-64
2023/06/01 02:16:16;;;;;;;8.93;4.45;;;11.50;99.90;;;;;;5054262;28;20200;-64
2023/06/01 02:18:45;;;;;;;9.93;4.43;;;11.40;99.90;;;;;;5057986;28;20208;-64
2023/06/01 02:21:13;;;;;;;13.55;4.30;;;11.50;99.90;;;;;;5059934;28;20296;-65
2023/06/01 02:23:41;;;;;;;10.95;4.57;;;11.50;99.90;;;;;;5038526;28;20201;-64
2023/06/01 02:26:09;;;;;;;8.55;4.40;;;11.50;99.90;;;;;;5047082;28;20220;-64
2023/06/01 02:28:38;;;;;;;9.85;5.03;;;11.50;99.90;;;;;;5021696;28;20212;-64
2023/06/01 02:31:05;;;;;;;10.02;4.55;;;11.50;99.90;;;;;;5042067;28;20271;-64
2023/06/01 02:33:31;;;;;;;11.95;4.38;;;11.50;99.90;;;;;;5041275;28;21533;-64
2023/06/01 02:36:00;;;;;;;15.65;5.53;;;11.50;99.90;;;;;;5053550;28;20245;-64
2023/06/01 02:38:27;;;;;;;11.82;4.45;;;11.50;99.90;;;;;;5048697;28;20204;-64
2023/06/01 02:40:54;;;;;;;5.90;3.97;;;11.50;99.90;;;;;;5046293;28;20204;-64
2023/06/01 02:43:21;;;;;;;6.32;3.75;;;11.40;99.90;;;;;;5030459;28;20204;-64
2023/06/01 02:45:47;;;;;;;11.68;3.78;;;11.40;99.90;;;;;;5045387;28;20981;-64
2023/06/01 02:48:14;;;;;;;9.65;3.58;;;11.40;99.90;;;;;;5061537;28;20207;-64
2023/06/01 02:50:41;;;;;;;10.32;3.60;;;11.40;99.90;;;;;;5050519;28;20207;-64
2023/06/01 02:53:09;;;;;;;10.30;4.30;;;11.40;99.90;;;;;;5045829;28;20561;-64
2023/06/01 02:55:36;;;;;;;6.53;3.20;;;11.50;99.90;;;;;;5058733;28;20200;-65
2023/06/01 02:58:03;;;;;;;7.80;3.85;;;11.40;99.90;;;;;;5010681;28;20235;-64
2023/06/01 03:00:29;;;;;;;13.00;4.25;;;11.50;99.90;;;;;;5058270;28;20218;-64
2023/06/01 03:02:56;;;;;;;10.55;4.20;;;11.50;99.90;;;;;;5029121;28;20281;-64
2023/06/01 03:05:23;;;;;;;15.55;4.55;;;11.50;99.90;;;;;;5059383;28;20203;-64
2023/06/01 03:07:50;;;;;;;9.02;4.00;;;11.50;99.90;;;;;;5057970;28;20251;-64
2023/06/01 03:10:18;;;;;;;7.38;4.05;;;11.50;99.90;;;;;;5050148;28;20666;-64
2023/06/01 03:12:45;;;;;;;9.43;4.13;;;11.40;99.90;;;;;;5047589;28;20235;-64
2023/06/01 03:15:12;;;;;;;11.20;3.80;;;11.40;99.90;;;;;;5028437;28;20289;-64
2023/06/01 03:17:39;;;;;;;11.43;4.07;;;11.50;99.90;;;;;;5042958;28;20204;-64
2023/06/01 03:20:14;;;;;;;14.18;3.35;;;11.40;99.90;;;;;;5047097;28;20204;-64
2023/06/01 03:22:42;;;;;;;6.55;3.67;;;11.50;99.90;;;;;;5056081;28;20192;-65
2023/06/01 03:25:09;;;;;;;8.90;4.00;;;11.40;99.90;;;;;;5046360;28;20302;-64
2023/06/01 03:27:37;;;;;;;11.75;3.67;;;11.50;99.90;;;;;;5047273;28;20192;-64
2023/06/01 03:30:09;;;;;;;11.40;3.22;;;11.50;99.90;;;;;;5026840;28;20261;-64
2023/06/01 03:32:37;;;;;;;12.15;3.92;;;11.50;99.90;;;;;;5049234;28;20792;-64
2023/06/01 03:35:04;;;;;;;10.35;3.28;;;11.40;99.90;;;;;;5040384;28;20200;-64
2023/06/01 03:37:31;;;;;;;11.13;3.30;;;11.40;99.90;;;;;;5061362;28;20196;-64
2023/06/01 03:39:58;;;;;;;8.25;3.80;;;11.50;99.90;;;;;;5049226;28;20401;-64
2023/06/01 03:42:25;;;;;;;9.23;3.83;;;11.40;99.90;;;;;;5058495;28;20193;-65
2023/06/01 03:44:53;;;;;;;7.30;3.65;;;11.40;99.90;;;;;;5026890;28;20239;-64
2023/06/01 03:47:20;;;;;;;8.68;3.65;;;11.40;99.90;;;;;;5051113;28;20244;-64
2023/06/01 03:49:47;;;;;;;11.15;3.78;;;11.40;99.90;;;;;;5039152;28;21926;-64
2023/06/01 03:52:16;;;;;;;12.68;4.20;;;11.40;99.90;;;;;;5037692;28;20243;-64
2023/06/01 03:54:42;;;;;;;9.43;4.25;;;11.40;99.90;;;;;;5064808;28;20196;-64
2023/06/01 03:57:09;;;;;;;9.80;4.97;;;11.40;99.90;;;;;;5053285;28;20205;-64
2023/06/01 03:59:36;;;;;;;7.13;4.22;;;11.40;99.90;;;;;;5043543;28;20542;-65
2023/06/01 04:02:08;;;;;;;7.28;3.50;;;11.40;99.90;;;;;;5026686;28;20233;-65
2023/06/01 04:04:34;;;;;;;9.07;4.15;;;11.40;99.90;;;;;;5038979;28;20207;-64
2023/06/01 04:07:02;;;;;;;10.93;3.90;;;11.40;99.90;;;;;;5047239;28;22820;-64
2023/06/01 04:09:29;;;;;;;14.88;4.75;;;11.30;99.90;;;;;;5064270;28;20303;-64
2023/06/01 04:11:56;;;;;;;9.68;3.75;;;11.40;99.90;;;;;;5024553;28;20244;-64
2023/06/01 04:14:23;;;;;;;17.77;4.75;;;11.30;99.90;;;;;;5051723;28;20200;-64
2023/06/01 04:16:50;;;;;;;17.60;4.60;;;11.40;99.90;;;;;;5013777;28;20239;-65
2023/06/01 04:19:18;;;;;;;6.72;3.88;;;11.40;99.90;;;;;;5043457;28;20231;-64
2023/06/01 04:21:45;;;;;;;20.40;4.03;;;11.40;99.90;;;;;;5032513;28;20220;-65
2023/06/01 04:24:12;;;;;;;7.40;3.72;;;11.40;99.90;;;;;;5054208;28;20235;-64
2023/06/01 04:26:39;;;;;;;12.60;4.10;;;11.30;99.90;;;;;;5047775;28;20207;-64
2023/06/01 04:32:22;;;;;;;12.25;4.30;;;11.20;99.90;;;;;;4941283;22;22558;-64
2023/06/01 04:34:52;;;;;;;15.00;4.60;;;11.40;99.90;;;;;;4976353;28;20311;-64
2023/06/01 04:37:20;;;;;;;10.48;4.18;;;11.40;99.90;;;;;;4983675;28;20219;-64
2023/06/01 04:39:49;;;;;;;7.57;4.38;;;11.40;99.90;;;;;;4980935;28;20312;-64
2023/06/01 04:42:17;;;;;;;8.95;3.90;;;11.40;99.90;;;;;;4986232;28;20369;-64
2023/06/01 04:44:45;;;;;;;8.52;4.13;;;11.50;99.90;;;;;;4972228;28;20769;-64
2023/06/01 04:47:12;;;;;;;16.45;4.40;;;11.50;99.90;;;;;;4978357;28;20214;-64
2023/06/01 04:49:42;;;;;;;15.00;4.75;;;11.40;99.90;;;;;;4981674;28;20223;-64
2023/06/01 04:52:11;;;;;;;9.48;4.55;;;11.50;99.90;;;;;;4981500;28;20637;-64
2023/06/01 04:54:38;;;;;;;7.72;3.88;;;11.50;99.90;;;;;;4978187;28;20885;-64
2023/06/01 04:57:06;;;;;;;11.23;4.10;;;11.40;99.90;;;;;;4981385;28;20226;-64
2023/06/01 04:59:33;;;;;;;13.10;3.90;;;11.40;99.90;;;;;;4972978;28;20288;-64
2023/06/01 05:02:00;;;;;;;13.05;4.43;;;11.40;99.90;;;;;;4995677;28;20567;-64
2023/06/01 05:04:27;;;;;;;10.15;4.03;;;11.30;99.90;;;;;;4958613;28;20711;-64
2023/06/01 05:06:54;;;;;;;13.77;4.70;;;11.30;99.90;;;;;;4977008;28;20254;-64
2023/06/01 05:09:22;;;;;;;13.10;4.70;;;11.20;99.90;;;;;;4987917;28;20214;-64
2023/06/01 05:11:49;;;;;;;10.80;4.05;;;11.20;99.90;;;;;;4993596;28;20223;-64
2023/06/01 05:14:16;;;;;;;10.00;3.67;;;11.20;99.90;;;;;;4977494;28;20715;-64
2023/06/01 05:16:42;;;;;;;8.77;4.60;;;11.30;99.90;;;;;;4971700;28;20213;-64
2023/06/01 05:19:09;;;;;;;8.75;3.90;;;11.20;99.90;;;;;;4962294;28;20227;-64
2023/06/01 05:21:36;;;;;;;11.13;4.93;;;11.20;99.90;;;;;;4991482;28;20221;-63
2023/06/01 05:24:03;;;;;;;11.85;4.80;;;11.30;99.90;;;;;;4973534;28;20198;-64
2023/06/01 05:26:31;;;;;;;9.80;4.07;;;11.30;99.90;;;;;;4987508;28;20679;-63
2023/06/01 05:28:58;;;;;;;10.60;4.65;;;11.20;99.90;;;;;;4983197;28;20217;-64
2023/06/01 05:31:24;;;;;;;8.35;3.85;;;11.20;99.90;;;;;;4994137;28;20237;-64
2023/06/01 05:33:52;;;;;;;7.70;3.78;;;11.30;99.90;;;;;;4976203;28;20819;-64
2023/06/01 05:36:18;;;;;;;12.82;4.35;;;11.30;99.90;;;;;;5006203;28;20249;-64
2023/06/01 05:38:46;;;;;;;8.75;3.83;;;11.30;99.90;;;;;;5001052;28;20211;-64
2023/06/01 05:41:12;;;;;;;11.32;4.18;;;11.30;99.90;;;;;;5007383;28;20277;-64
2023/06/01 05:43:41;;;;;;;7.05;3.35;;;11.30;99.90;;;;;;4965864;28;21179;-64
2023/06/01 05:46:07;;;;;;;8.43;3.47;;;11.30;99.90;;;;;;5002707;28;20207;-64
2023/06/01 05:48:34;;;;;;;8.07;3.38;;;11.30;99.90;;;;;;4991433;28;20198;-64
2023/06/01 05:51:01;;;;;;;10.27;3.42;;;11.30;99.90;;;;;;4974401;28;20213;-64
2023/06/01 05:53:29;;;;;;;7.47;3.22;;;11.40;99.90;;;;;;4993953;28;20233;-64
2023/06/01 05:55:56;;;;;;;11.77;3.67;;;11.40;99.90;;;;;;5003372;28;20206;-64
2023/06/01 05:58:23;;;;;;;5.78;3.28;;;11.40;99.90;;;;;;4998557;28;20850;-64
2023/06/01 06:00:51;;;;;;;13.52;3.90;;;11.30;99.90;;;;;;5003039;28;20702;-64
2023/06/01 06:03:18;;;;;;;6.75;3.33;;;11.30;99.90;;;;;;4979337;28;20206;-64
2023/06/01 06:05:45;;;;;;;8.00;3.50;;;11.40;99.90;;;;;;4971559;28;20931;-64
2023/06/01 06:08:12;;;;;;;6.60;3.25;;;11.40;99.90;;;;;;4962505;28;20299;-64
2023/06/01 06:10:38;;;;;;;9.27;3.50;;;11.40;99.90;;;;;;4991181;28;20220;-65
2023/06/01 06:13:05;;;;;;;5.57;3.05;;;11.40;99.90;;;;;;4985551;28;20252;-63
2023/06/01 06:15:32;;;;;;;10.88;3.58;;;11.40;99.90;;;;;;4977808;28;20217;-65
2023/06/01 06:18:00;;;;;;;6.78;3.20;;;11.40;99.90;;;;;;4987491;28;20830;-64
2023/06/01 06:20:27;;;;;;;8.05;3.20;;;11.40;99.90;;;;;;4980503;28;20218;-64
2023/06/01 06:22:54;;;;;;;4.32;3.20;;;11.40;99.90;;;;;;4983380;28;20229;-64
2023/06/01 06:25:21;;;;;;;6.60;2.63;;;11.40;99.90;;;;;;5004119;28;20226;-64
2023/06/01 06:27:48;;;;;;;9.40;3.08;;;11.40;99.90;;;;;;4991494;28;20229;-64
2023/06/01 06:30:15;;;;;;;6.85;3.08;;;11.40;99.90;;;;;;4985473;28;20222;-64
2023/06/01 06:32:42;;;;;;;8.25;3.03;;;11.40;99.90;;;;;;4996055;28;20344;-64
2023/06/01 06:35:12;;;;;;;6.90;2.70;;;11.50;99.90;;;;;;4996928;28;20598;-65
2023/06/01 06:37:39;;;;;;;10.13;3.28;;;11.40;99.90;;;;;;4971138;28;20226;-64
2023/06/01 06:40:08;;;;;;;6.57;2.83;;;11.50;99.90;;;;;;4989420;28;20223;-64
2023/06/01 06:42:35;;;;;;;9.98;3.35;;;11.40;99.90;;;;;;4992520;28;20300;-64
2023/06/01 06:45:02;;;;;;;5.68;2.83;;;11.40;99.90;;;;;;4992890;28;20226;-64
2023/06/01 06:47:28;;;;;;;10.00;3.50;;;11.50;99.90;;;;;;5005068;28;20222;-64
2023/06/01 06:49:55;;;;;;;9.27;3.53;;;11.50;99.90;;;;;;4986054;28;20234;-64
2023/06/01 06:52:23;;;;;;;16.65;3.63;;;11.40;99.90;;;;;;4973400;28;20229;-63
2023/06/01 06:54:50;;;;;;;8.20;3.05;;;11.50;99.90;;;;;;4988125;28;20245;-64
2023/06/01 06:57:20;;;;;;;7.82;3.22;;;11.50;99.90;;;;;;5003065;28;20213;-65
2023/06/01 06:59:46;;;;;;;9.23;3.53;;;11.60;99.90;;;;;;4992695;28;20725;-65
2023/06/01 07:02:13;;;;;;;10.50;3.40;;;11.60;99.90;;;;;;4970284;28;20241;-64
2023/06/01 07:04:40;;;;;;;8.18;3.58;;;11.60;99.90;;;;;;4987997;28;20233;-64
2023/06/01 07:07:08;;;;;;;4.65;3.03;;;11.50;99.90;;;;;;4989307;28;20240;-64
2023/06/01 07:09:36;;;;;;;9.15;3.30;;;11.60;99.90;;;;;;4963463;28;20222;-64
2023/06/01 07:12:02;;;;;;;6.32;3.35;;;11.50;99.90;;;;;;5010036;28;20232;-63
2023/06/01 07:14:29;;;;;;;8.88;3.58;;;11.50;99.90;;;;;;4994310;28;20746;-64
2023/06/01 07:16:56;;;;;;;5.70;3.05;;;11.60;99.90;;;;;;4995219;28;20226;-64
2023/06/01 07:19:23;;;;;;;9.05;2.88;;;11.60;99.90;;;;;;5004940;28;20223;-64
2023/06/01 07:21:50;;;;;;;7.22;2.72;;;11.60;99.90;;;;;;5007728;28;20205;-63
2023/06/01 07:24:19;;;;;;;5.63;3.05;;;11.60;99.90;;;;;;4973283;28;20205;-64
2023/06/01 07:26:47;;;;;;;12.32;3.00;;;11.60;99.90;;;;;;5004204;28;20206;-64
2023/06/01 07:29:14;;;;;;;7.72;3.40;;;11.60;99.90;;;;;;4996441;28;20739;-64
2023/06/01 07:31:41;;;;;;;8.52;3.95;;;11.70;99.90;;;;;;5007082;28;21133;-64
2023/06/01 07:34:08;;;;;;;8.65;3.40;;;11.70;99.90;;;;;;4997415;28;20226;-64
2023/06/01 07:36:36;;;;;;;12.98;2.65;;;11.80;99.90;;;;;;4994866;28;20221;-65
2023/06/01 07:39:05;;;;;;;6.75;2.88;;;11.80;99.90;;;;;;4980950;28;20266;-64
2023/06/01 07:41:32;;;;;;;5.53;2.83;;;11.80;99.90;;;;;;4998928;28;20198;-64
2023/06/01 07:44:01;;;;;;;6.88;3.05;;;11.80;99.90;;;;;;5010151;28;20319;-64
2023/06/01 07:46:27;;;;;;;8.20;3.45;;;11.90;99.90;;;;;;5003950;28;20210;-64
2023/06/01 07:48:54;;;;;;;12.15;4.10;;;11.90;99.90;;;;;;5002148;28;20202;-64
2023/06/01 07:51:21;;;;;;;6.72;3.10;;;11.90;99.90;;;;;;5001356;28;20202;-64
2023/06/01 07:53:48;;;;;;;10.65;3.85;;;11.90;99.90;;;;;;5003418;28;20341;-64
2023/06/01 07:56:15;;;;;;;11.40;3.35;;;11.90;99.90;;;;;;4980500;28;20210;-63
2023/06/01 07:58:42;;;;;;;9.73;3.42;;;11.90;99.90;;;;;;4997716;28;20661;-63
2023/06/01 08:01:10;;;;;;;9.82;3.85;;;12.00;99.90;;;;;;5002082;28;20201;-63
2023/06/01 08:03:37;;;;;;;6.43;3.20;;;12.00;99.90;;;;;;4997121;28;20202;-64
2023/06/01 08:06:04;;;;;;;13.98;3.70;;;12.00;99.90;;;;;;5011568;28;20201;-64
2023/06/01 08:08:31;;;;;;;8.32;3.20;;;12.10;99.90;;;;;;4996391;28;20213;-64
2023/06/01 08:10:58;;;;;;;6.00;2.58;;;12.10;99.90;;;;;;4981052;28;20218;-64
2023/06/01 08:13:25;;;;;;;9.13;2.65;;;12.10;99.90;;;;;;5001632;28;20233;-63
2023/06/01 08:15:52;;;;;;;10.65;3.42;;;12.00;99.90;;;;;;5002530;28;20252;-64
2023/06/01 08:18:21;;;;;;;4.45;2.72;;;12.00;99.90;;;;;;4998659;28;20202;-63
2023/06/01 08:20:49;;;;;;;4.03;2.30;;;12.00;99.90;;;;;;5012062;28;20256;-63
2023/06/01 08:23:17;;;;;;;5.97;2.65;;;11.90;99.90;;;;;;4998876;28;20202;-63
2023/06/01 08:25:44;;;;;;;6.97;3.13;;;11.80;99.90;;;;;;4980334;28;20214;-64
2023/06/01 08:28:11;;;;;;;8.20;3.08;;;11.70;99.90;;;;;;4999517;28;20202;-64
2023/06/01 08:30:37;;;;;;;6.75;2.70;;;11.70;99.90;;;;;;5008572;28;20222;-63
2023/06/01 08:33:04;;;;;;;6.05;2.33;;;11.70;99.90;;;;;;4991863;28;20222;-64
2023/06/01 08:35:33;;;;;;;7.47;2.90;;;11.80;99.90;;;;;;4990788;28;20203;-64
2023/06/01 08:38:00;;;;;;;9.05;3.30;;;11.80;99.90;;;;;;4995422;28;20292;-64
2023/06/01 08:40:27;;;;;;;10.93;3.95;;;11.80;99.90;;;;;;5008031;28;20207;-63
2023/06/01 08:43:00;;;;;;;3.40;2.15;;;11.90;99.90;;;;;;4967907;28;20672;-64
2023/06/01 08:45:27;;;;;;;2.38;1.90;;;11.90;99.90;;;;;;5007409;28;20687;-63
2023/06/01 08:47:55;;;;;;;8.45;2.53;;;11.90;99.90;;;;;;4986610;28;20254;-63
2023/06/01 08:50:22;;;;;;;5.50;2.30;;;11.90;99.90;;;;;;4994751;28;20294;-63
2023/06/01 08:52:55;;;;;;;9.35;2.25;;;11.80;99.90;;;;;;4990551;28;20221;-63
2023/06/01 08:55:22;;;;;;;3.47;2.25;;;11.90;99.90;;;;;;5008261;28;20202;-64
2023/06/01 08:57:50;;;;;;;6.07;2.38;;;11.90;99.90;;;;;;4963613;28;20214;-64
2023/06/01 09:00:18;;;;;;;8.27;2.50;;;11.90;99.90;;;;;;5012117;28;20202;-64
2023/06/01 09:02:45;;;;;;;10.65;2.72;;;12.00;99.90;;;;;;4997569;28;20213;-64
2023/06/01 09:05:13;;;;;;;10.15;2.58;;;12.00;99.90;;;;;;4992719;28;20210;-63
2023/06/01 09:07:40;;;;;;;3.58;1.90;;;12.00;99.90;;;;;;4994405;28;20210;-63
2023/06/01 09:10:10;;;;;;;11.82;2.35;;;12.00;99.90;;;;;;5001354;28;20212;-64
2023/06/01 09:12:40;;;;;;;6.90;2.40;;;12.10;99.90;;;;;;4972040;28;20209;-64
2023/06/01 09:15:12;;;;;;;6.55;2.10;;;12.10;99.90;;;;;;4979091;28;20223;-63
2023/06/01 09:17:40;;;;;;;6.32;2.25;;;12.10;99.90;;;;;;5001444;28;20312;-63
2023/06/01 09:20:11;;;;;;;4.85;2.83;;;12.20;99.90;;;;;;4979008;28;21276;-63
2023/06/01 09:22:43;;;;;;;6.40;2.30;;;12.30;99.90;;;;;;5002109;28;20213;-63
2023/06/01 09:25:12;;;;;;;9.23;2.40;;;12.30;99.90;;;;;;4996444;28;20682;-63
2023/06/01 09:27:49;;;;;;;10.48;2.78;;;12.30;99.90;;;;;;4988035;28;20285;-64
2023/06/01 09:30:17;;;;;;;11.35;3.15;;;12.30;99.90;;;;;;4995309;28;20802;-63
2023/06/01 09:32:47;;;;;;;7.43;2.88;;;12.30;99.90;;;;;;4993129;28;20213;-63
2023/06/01 09:35:14;;;;;;;5.07;2.28;;;12.30;99.90;;;;;;4990993;28;20750;-63
2023/06/01 09:37:55;;;;;;;17.92;3.05;;;12.40;99.90;;;;;;4990202;28;20591;-63
2023/06/01 09:40:23;;;;;;;8.88;3.60;;;12.40;99.90;;;;;;4986563;28;20366;-63
2023/06/01 09:42:50;;;;;;;10.35;2.35;;;12.40;99.90;;;;;;4968464;28;20218;-64
2023/06/01 09:45:21;;;;;;;9.48;2.80;;;12.30;99.90;;;;;;4997300;28;20202;-63
2023/06/01 09:47:48;;;;;;;7.18;2.65;;;12.40;99.90;;;;;;5003869;28;20245;-63
2023/06/01 09:50:35;;;;;;;9.65;2.70;;;12.30;99.90;;;;;;4995871;28;20221;-64
2023/06/01 09:53:03;;;;;;;4.28;1.90;;;12.40;99.90;;;;;;4994796;28;20222;-63
2023/06/01 09:55:31;;;;;;;10.73;2.60;;;12.40;99.90;;;;;;4992830;28;20202;-63
2023/06/01 09:58:20;;;;;;;6.75;2.65;;;12.50;99.90;;;;;;5000994;28;20203;-63
2023/06/01 10:00:48;;;;;;;7.20;2.10;;;12.50;99.90;;;;;;4963618;28;20931;-63
2023/06/01 10:03:15;;;;;;;7.88;3.03;;;12.50;99.90;;;;;;5007841;28;20201;-63
2023/06/01 10:05:43;;;;;;;3.63;2.30;;;12.60;99.90;;;;;;4992772;28;20206;-63
2023/06/01 10:08:12;;;;;;;8.63;2.65;;;12.70;99.90;;;;;;4992014;28;20221;-64
2023/06/01 10:10:42;;;;;;;13.45;3.25;;;12.70;99.90;;;;;;4992537;28;20721;-63
2023/06/01 10:13:09;;;;;;;10.65;2.70;;;12.80;99.90;;;;;;5004263;28;20214;-63
2023/06/01 10:15:37;;;;;;;8.93;3.53;;;13.00;99.90;;;;;;4980456;28;20272;-63
2023/06/01 10:18:04;;;;;;;7.15;3.10;;;12.90;99.90;;;;;;5001589;28;20194;-63
2023/06/01 10:20:34;;;;;;;5.20;2.38;;;12.70;99.90;;;;;;5003068;28;20255;-63
2023/06/01 10:23:01;;;;;;;7.82;2.80;;;12.90;99.90;;;;;;4989083;28;21171;-63
2023/06/01 10:25:33;;;;;;;6.93;2.35;;;12.80;99.90;;;;;;5009384;28;20213;-63
2023/06/01 10:28:07;;;;;;;6.22;2.72;;;12.70;99.90;;;;;;4994018;28;20220;-63
2023/06/01 10:30:34;;;;;;;9.70;2.70;;;12.60;99.90;;;;;;4983379;28;20331;-63
2023/06/01 10:33:01;;;;;;;6.90;2.40;;;12.60;99.90;;;;;;4982126;28;20233;-63
2023/06/01 10:36:01;;;;;;;14.27;3.45;;;12.60;99.90;;;;;;5005929;28;20202;-63
2023/06/01 10:38:28;;;;;;;10.13;2.65;;;12.40;99.90;;;;;;5000109;28;20217;-63
2023/06/01 10:41:32;;;;;;;8.50;3.00;;;12.40;99.90;;;;;;4984935;28;20217;-64
2023/06/01 10:44:00;;;;;;;6.00;2.50;;;12.40;99.90;;;;;;4981538;28;20253;-63
2023/06/01 10:46:43;;;;;;;9.73;2.97;;;12.50;99.90;;;;;;4982608;28;20221;-63
2023/06/01 10:49:10;;;;;;;10.82;2.75;;;12.60;99.90;;;;;;4990188;28;20763;-64
2023/06/01 10:51:37;;;;;;;9.25;3.70;;;12.60;99.90;;;;;;5001640;28;20667;-63
2023/06/01 10:54:27;;;;;;;5.82;2.33;;;12.60;99.90;;;;;;4992726;28;20229;-63
2023/06/01 10:57:22;;;;;;;6.65;2.75;;;12.70;99.90;;;;;;4985086;28;20210;-63
2023/06/01 11:00:20;;;;;;;8.82;3.78;;;12.60;99.90;;;;;;4980211;28;20230;-64
2023/06/01 11:02:52;;;;;;;6.78;3.08;;;12.50;99.90;;;;;;4953598;28;20234;-63
2023/06/01 11:05:36;;;;;;;6.20;3.03;;;12.60;99.90;;;;;;4969918;28;20233;-63
2023/06/01 11:08:03;;;;;;;6.38;2.75;;;12.50;99.90;;;;;;4981015;28;20226;-63
2023/06/01 11:11:02;;;;;;;9.57;2.72;;;12.60;99.90;;;;;;4965907;28;20213;-63
2023/06/01 11:13:31;;;;;;;6.78;2.85;;;12.60;99.90;;;;;;4989062;28;20242;-64
2023/06/01 11:16:31;;;;;;;7.55;2.78;;;12.70;99.90;;;;;;4996323;28;20294;-64
2023/06/01 11:19:00;;;;;;;9.90;3.30;;;12.70;99.90;;;;;;4956536;28;20231;-64
2023/06/01 11:21:28;;;;;;;6.10;2.53;;;12.70;99.90;;;;;;4976192;28;20591;-63
2023/06/01 11:23:57;;;;;;;9.98;3.33;;;12.70;99.90;;;;;;4978673;28;20284;-63
2023/06/01 11:26:29;;;;;;;6.20;2.63;;;12.70;99.90;;;;;;4972344;28;20229;-63
2023/06/01 11:29:06;;;;;;;8.40;3.13;;;12.70;99.90;;;;;;4970379;28;20233;-63
2023/06/01 11:31:40;;;;;;;11.13;3.50;;;12.70;99.90;;;;;;4997853;28;20241;-64
2023/06/01 11:34:09;;;;;;;15.90;3.90;;;12.60;99.90;;;;;;4961340;28;20600;-64
2023/06/01 11:36:41;;;;;;;10.63;3.40;;;12.60;99.90;;;;;;4974850;28;20412;-63
2023/06/01 11:39:20;;;;;;;12.70;3.90;;;12.60;99.90;;;;;;4969291;28;20219;-64
2023/06/01 11:41:47;;;;;;;9.48;3.47;;;12.60;99.90;;;;;;4981669;28;20212;-64
2023/06/01 11:44:14;;;;;;;8.82;3.10;;;12.60;99.90;;;;;;4978207;28;20226;-64
2023/06/01 11:46:55;;;;;;;6.82;3.20;;;12.60;99.90;;;;;;5001174;28;20209;-63
2023/06/01 11:49:23;;;;;;;11.40;2.72;;;12.60;99.90;;;;;;4960642;28;20207;-64
2023/06/01 11:51:51;;;;;;;7.57;3.00;;;12.60;99.90;;;;;;5002134;28;20213;-63
2023/06/01 11:54:22;;;;;;;6.40;2.78;;;12.60;99.90;;;;;;4992115;28;20263;-64
2023/06/01 11:56:49;;;;;;;4.28;2.92;;;12.60;99.90;;;;;;4985693;28;20654;-64
2023/06/01 11:59:16;;;;;;;8.35;3.00;;;12.60;99.90;;;;;;4993704;28;20198;-64
2023/06/01 12:01:43;;;;;;;10.77;3.08;;;12.70;99.90;;;;;;4995249;28;20206;-64
2023/06/01 12:04:15;;;;;;;10.45;3.15;;;12.80;99.90;;;;;;4969647;28;20698;-64
2023/06/01 12:06:43;;;;;;;7.75;3.25;;;12.80;99.90;;;;;;5002384;28;20237;-63
2023/06/01 12:09:10;;;;;;;8.13;3.40;;;12.80;99.90;;;;;;5000665;28;20206;-64
2023/06/01 12:11:38;;;;;;;9.82;2.80;;;12.90;99.90;;;;;;4993768;28;20336;-63
2023/06/01 12:14:06;;;;;;;11.00;2.95;;;12.90;99.90;;;;;;4994141;28;20352;-64
2023/06/01 12:16:55;;;;;;;9.75;3.65;;;12.90;99.90;;;;;;4965913;28;20202;-64
2023/06/01 12:19:23;;;;;;;6.25;2.90;;;12.80;99.90;;;;;;4982882;28;20289;-64
2023/06/01 12:21:51;;;;;;;6.20;2.70;;;12.80;99.90;;;;;;4967415;28;20202;-64
2023/06/01 12:24:19;;;;;;;7.70;3.20;;;12.80;99.90;;;;;;5000517;28;20199;-64
2023/06/01 12:26:46;;;;;;;9.88;3.25;;;12.80;99.90;;;;;;4987531;28;20712;-64
2023/06/01 12:29:13;;;;;;;5.75;3.10;;;12.70;99.90;;;;;;4974672;28;20225;-64
2023/06/01 12:31:39;;;;;;;10.15;4.05;;;12.70;99.90;;;;;;4971874;28;20236;-64
2023/06/01 12:34:16;;;;;;;7.20;3.22;;;12.60;99.90;;;;;;4999161;28;20740;-64
2023/06/01 12:36:44;;;;;;;5.38;2.83;;;12.60;99.90;;;;;;4947630;28;20354;-64
2023/06/01 12:39:11;;;;;;;10.02;3.40;;;12.60;99.90;;;;;;4965129;28;20694;-64
2023/06/01 12:41:48;;;;;;;5.13;2.28;;;12.70;99.90;;;;;;4963306;28;20240;-64
2023/06/01 12:44:20;;;;;;;4.50;2.30;;;12.60;99.90;;;;;;4965049;28;20229;-65
2023/06/01 12:46:48;;;;;;;7.57;2.25;;;12.70;99.90;;;;;;4980751;28;21015;-65
2023/06/01 12:49:17;;;;;;;8.93;2.53;;;12.80;99.90;;;;;;4996298;28;20226;-64
2023/06/01 12:51:46;;;;;;;17.73;5.15;;;12.80;99.90;;;;;;4970920;28;20746;-64
2023/06/01 12:54:13;;;;;;;6.72;2.53;;;12.80;99.90;;;;;;4971572;28;20324;-65
2023/06/01 12:56:40;;;;;;;11.43;3.95;;;12.70;99.90;;;;;;4977671;28;20226;-65